createdAt,value
2023-01-27T00:15:07.727Z,737.00
2023-01-27T00:32:07.943Z,737.00
2023-01-27T00:33:07.927Z,735.00
2023-01-27T00:34:07.927Z,737.00
2023-01-27T00:35:07.933Z,738.00
2023-01-27T00:36:07.921Z,737.00
2023-01-27T00:37:07.933Z,736.00
2023-01-27T00:38:07.942Z,736.00
2023-01-27T00:41:07.956Z,737.00
2023-01-27T00:42:07.961Z,738.00
2023-01-27T00:43:07.950Z,735.00
2023-01-27T00:44:07.955Z,730.00
2023-01-27T00:45:07.968Z,729.00
2023-01-27T00:46:08.025Z,727.00
2023-01-27T00:47:08.115Z,725.00
2023-01-27T00:48:08.001Z,726.00
2023-01-27T00:49:08.020Z,725.00
2023-01-27T00:50:08.045Z,726.00
2023-01-27T00:51:08.105Z,725.00
2023-01-27T00:52:08.032Z,726.00
2023-01-27T00:53:08.043Z,728.00
2023-01-27T00:54:08.083Z,727.00
2023-01-27T00:56:08.065Z,726.00
2023-01-27T00:57:08.036Z,727.00
2023-01-27T00:58:08.075Z,725.00
2023-01-27T00:59:08.016Z,725.00
2023-01-27T01:00:08.034Z,726.00
2023-01-27T01:01:08.026Z,724.00
2023-01-27T01:02:08.102Z,730.00
2023-01-27T01:03:08.068Z,730.00
2023-01-27T01:04:08.019Z,731.00
2023-01-27T01:05:08.085Z,735.00
2023-01-27T01:06:08.022Z,733.00
2023-01-27T01:07:08.016Z,730.00
2023-01-27T01:08:08.010Z,734.00
2023-01-27T01:09:08.023Z,732.00
2023-01-27T01:10:08.034Z,732.00
2023-01-27T01:11:08.089Z,731.00
2023-01-27T01:12:08.088Z,730.00
2023-01-27T01:13:08.093Z,726.00
2023-01-27T01:14:08.097Z,727.00
2023-01-27T01:15:08.130Z,728.00
2023-01-27T01:16:08.135Z,729.00
2023-01-27T01:17:08.129Z,729.00
2023-01-27T01:18:08.123Z,729.00
2023-01-27T01:19:08.123Z,725.00
2023-01-27T01:20:08.226Z,723.00
2023-01-27T01:21:08.128Z,722.00
2023-01-27T01:22:08.111Z,725.00
2023-01-27T01:23:08.091Z,728.00
2023-01-27T01:24:08.169Z,731.00
2023-01-27T01:25:08.078Z,729.00
2023-01-27T01:26:08.078Z,731.00
2023-01-27T01:27:08.084Z,734.00
2023-01-27T01:28:08.087Z,733.00
2023-01-27T01:29:08.086Z,732.00
2023-01-27T01:30:08.084Z,731.00
2023-01-27T01:31:08.263Z,728.00
2023-01-27T01:32:08.089Z,730.00
2023-01-27T01:33:08.818Z,726.00
2023-01-27T01:34:08.078Z,724.00
2023-01-27T01:35:08.072Z,722.00
2023-01-27T01:36:08.078Z,721.00
2023-01-27T01:37:08.051Z,718.00
2023-01-27T01:38:08.044Z,716.00
2023-01-27T01:39:08.038Z,715.00
2023-01-27T01:40:08.033Z,718.00
2023-01-27T01:41:08.037Z,716.00
2023-01-27T01:42:08.067Z,715.00
2023-01-27T01:43:08.048Z,716.00
2023-01-27T01:44:08.041Z,716.00
2023-01-27T01:45:08.024Z,718.00
2023-01-27T01:46:08.027Z,715.00
2023-01-27T01:47:08.087Z,718.00
2023-01-27T01:48:08.016Z,714.00
2023-01-27T01:49:08.013Z,712.00
2023-01-27T01:50:08.023Z,713.00
2023-01-27T01:51:08.031Z,711.00
2023-01-27T01:52:08.027Z,711.00
2023-01-27T01:53:08.829Z,711.00
2023-01-27T01:54:08.001Z,711.00
2023-01-27T01:55:08.016Z,711.00
2023-01-27T01:56:08.014Z,712.00
2023-01-27T01:57:08.024Z,712.00
2023-01-27T01:58:07.998Z,710.00
2023-01-27T01:59:08.025Z,714.00
2023-01-27T02:00:08.030Z,716.00
2023-01-27T02:01:08.042Z,717.00
2023-01-27T02:02:08.081Z,721.00
2023-01-27T02:03:08.030Z,720.00
2023-01-27T02:04:08.023Z,717.00
2023-01-27T02:05:08.018Z,711.00
2023-01-27T02:06:08.011Z,711.00
2023-01-27T02:07:08.014Z,709.00
2023-01-27T02:08:08.009Z,706.00
2023-01-27T02:09:08.009Z,707.00
2023-01-27T02:10:07.997Z,706.00
2023-01-27T02:11:07.989Z,709.00
2023-01-27T02:12:07.973Z,711.00
2023-01-27T02:13:07.973Z,710.00
2023-01-27T02:14:07.970Z,709.00
2023-01-27T02:15:07.959Z,711.00
2023-01-27T02:16:07.957Z,711.00
2023-01-27T02:17:07.944Z,711.00
2023-01-27T02:18:07.930Z,711.00
2023-01-27T02:19:07.928Z,711.00
2023-01-27T02:20:07.909Z,711.00
2023-01-27T02:21:07.902Z,707.00
2023-01-27T02:22:07.892Z,705.00
2023-01-27T02:23:07.882Z,705.00
2023-01-27T02:24:07.906Z,706.00
2023-01-27T02:25:07.860Z,710.00
2023-01-27T02:26:07.879Z,708.00
2023-01-27T02:27:07.898Z,707.00
2023-01-27T02:28:07.861Z,708.00
2023-01-27T02:29:07.849Z,704.00
2023-01-27T02:30:07.840Z,701.00
2023-01-27T02:31:07.918Z,703.00
2023-01-27T02:32:07.827Z,702.00
2023-01-27T02:33:07.810Z,703.00
2023-01-27T02:34:07.889Z,700.00
2023-01-27T02:35:07.805Z,702.00
2023-01-27T02:36:07.789Z,705.00
2023-01-27T02:37:08.319Z,706.00
2023-01-27T02:38:07.774Z,707.00
2023-01-27T02:39:07.766Z,707.00
2023-01-27T02:40:07.745Z,707.00
2023-01-27T02:41:07.734Z,707.00
2023-01-27T02:42:08.312Z,704.00
2023-01-27T02:43:07.727Z,703.00
2023-01-27T02:44:07.701Z,703.00
2023-01-27T02:45:07.693Z,703.00
2023-01-27T02:46:07.804Z,704.00
2023-01-27T02:47:07.710Z,705.00
2023-01-27T02:48:07.670Z,704.00
2023-01-27T02:49:07.678Z,705.00
2023-01-27T02:50:07.647Z,706.00
2023-01-27T02:51:07.641Z,703.00
2023-01-27T02:52:07.629Z,703.00
2023-01-27T02:53:07.628Z,705.00
2023-01-27T02:54:07.680Z,706.00
2023-01-27T02:55:07.599Z,705.00
2023-01-27T02:56:07.583Z,704.00
2023-01-27T02:57:07.592Z,705.00
2023-01-27T02:58:07.580Z,702.00
2023-01-27T02:59:07.626Z,705.00
2023-01-27T03:00:07.558Z,708.00
2023-01-27T03:01:07.621Z,708.00
2023-01-27T03:02:07.583Z,706.00
2023-01-27T03:03:07.543Z,708.00
2023-01-27T03:04:07.527Z,704.00
2023-01-27T03:05:07.520Z,706.00
2023-01-27T03:06:07.510Z,708.00
2023-01-27T03:07:07.497Z,709.00
2023-01-27T03:08:07.502Z,708.00
2023-01-27T03:09:07.499Z,709.00
2023-01-27T03:55:07.218Z,691.00
2023-01-27T03:56:07.281Z,689.00
2023-01-27T03:57:07.210Z,689.00
2023-01-27T06:27:11.463Z,951.00
2023-01-27T06:28:19.864Z,982.00
2023-01-27T06:29:12.422Z,995.00
2023-01-27T06:31:12.250Z,987.00
2023-01-27T06:38:12.609Z,996.00
2023-01-27T06:39:11.467Z,991.00
2023-01-27T06:40:11.693Z,983.00
2023-01-27T06:41:11.522Z,979.00
2023-01-27T06:42:11.574Z,976.00
2023-01-27T06:43:11.604Z,973.00
2023-01-27T06:44:11.679Z,974.00
2023-01-27T06:45:11.717Z,975.00
2023-01-27T06:46:11.786Z,970.00
2023-01-27T06:52:11.951Z,950.00
2023-01-27T06:53:11.968Z,944.00
2023-01-27T06:54:11.984Z,939.00
2023-01-27T06:55:12.053Z,935.00
2023-01-27T06:56:11.998Z,925.00
2023-01-27T06:57:12.014Z,919.00
2023-01-27T06:58:12.020Z,912.00
2023-01-27T06:59:12.014Z,904.00
2023-01-27T07:00:12.322Z,899.00
2023-01-27T07:01:12.095Z,895.00
2023-01-27T07:02:12.148Z,894.00
2023-01-27T07:03:12.109Z,890.00
2023-01-27T09:09:15.777Z,960.00
2023-01-27T09:25:15.787Z,1965.00
2023-01-27T09:27:15.761Z,1974.00
2023-01-27T09:33:16.266Z,1595.00
2023-01-27T09:34:16.265Z,1560.00
2023-01-27T09:37:15.563Z,1579.00
2023-01-27T09:38:15.595Z,1710.00
2023-01-27T09:39:15.665Z,1693.00
2023-01-27T09:40:15.711Z,1647.00
2023-01-27T09:41:15.773Z,1644.00
2023-01-27T09:42:15.845Z,1641.00
2023-01-27T09:43:15.858Z,1647.00
2023-01-27T09:44:15.888Z,1647.00
2023-01-27T09:45:16.065Z,1622.00
2023-01-27T09:46:15.988Z,1588.00
2023-01-27T09:47:16.780Z,1558.00
2023-01-27T09:48:15.961Z,1521.00
2023-01-27T09:49:15.928Z,1519.00
2023-01-27T09:50:16.932Z,1517.00
2023-01-27T09:51:15.913Z,1508.00
2023-01-27T09:52:16.823Z,1496.00
2023-01-27T09:53:15.919Z,1477.00
2023-01-27T09:54:15.913Z,1465.00
2023-01-27T09:55:16.019Z,1459.00
2023-01-27T09:56:16.765Z,1439.00
2023-01-27T09:57:15.938Z,1428.00
2023-01-27T09:58:15.939Z,1424.00
2023-01-27T09:59:15.875Z,1418.00
2023-01-27T10:00:16.257Z,1413.00
2023-01-27T10:01:15.875Z,1405.00
2023-01-27T10:02:15.853Z,1354.00
2023-01-27T10:03:16.266Z,1356.00
2023-01-27T10:04:15.859Z,1355.00
2023-01-27T10:05:15.827Z,1348.00
2023-01-27T10:06:15.827Z,1342.00
2023-01-27T10:07:15.824Z,1335.00
2023-01-27T10:08:15.811Z,1331.00
2023-01-27T10:09:15.815Z,1323.00
2023-01-27T10:10:15.948Z,1318.00
2023-01-27T10:11:15.811Z,1316.00
2023-01-27T10:12:15.798Z,1319.00
2023-01-27T10:13:15.785Z,1315.00
2023-01-27T10:14:15.770Z,1307.00
2023-01-27T10:15:15.778Z,1285.00
2023-01-27T10:16:15.853Z,1284.00
2023-01-27T10:17:15.779Z,1312.00
2023-01-27T10:18:15.794Z,1361.00
2023-01-27T10:19:15.800Z,1399.00
2023-01-27T10:20:16.040Z,1417.00
2023-01-27T10:21:15.799Z,1324.00
2023-01-27T10:22:15.784Z,1451.00
2023-01-27T10:23:16.806Z,1276.00
2023-01-27T10:24:15.769Z,1260.00
2023-01-27T10:25:15.767Z,1319.00
2023-01-27T10:26:15.724Z,1365.00
2023-01-27T10:27:15.721Z,1383.00
2023-01-27T10:28:15.714Z,1323.00
2023-01-27T10:29:15.760Z,1399.00
2023-01-27T10:30:16.005Z,1382.00
2023-01-27T10:31:15.773Z,1383.00
2023-01-27T10:32:15.641Z,1359.00
2023-01-27T10:33:15.758Z,1362.00
2023-01-27T10:34:15.626Z,1368.00
2023-01-27T10:35:15.607Z,1365.00
2023-01-27T10:36:15.594Z,1347.00
2023-01-27T10:37:16.263Z,1343.00
2023-01-27T10:38:15.580Z,1333.00
2023-01-27T10:39:15.572Z,1336.00
2023-01-27T10:40:15.933Z,1343.00
2023-01-27T10:41:15.554Z,1338.00
2023-01-27T10:42:15.538Z,1315.00
2023-01-27T11:19:16.686Z,1300.00
2023-01-27T11:25:15.749Z,1398.00
2023-01-27T11:41:15.566Z,1296.00
2023-01-27T11:42:15.619Z,1368.00
2023-01-27T11:43:15.678Z,1348.00
2023-01-27T11:44:15.747Z,1294.00
2023-01-27T11:45:15.802Z,1373.00
2023-01-27T11:46:15.992Z,1378.00
2023-01-27T11:47:15.902Z,1308.00
2023-01-27T11:48:15.966Z,1309.00
2023-01-27T11:49:16.020Z,1309.00
2023-01-27T11:50:16.158Z,1321.00
2023-01-27T11:51:16.171Z,1316.00
2023-01-27T11:52:16.169Z,1306.00
2023-01-27T11:56:16.357Z,1314.00
2023-01-27T11:57:16.395Z,1341.00
2023-01-27T11:58:16.443Z,1303.00
2023-01-27T11:59:16.499Z,1268.00
2023-01-27T12:00:16.617Z,1278.00
2023-01-27T12:01:16.542Z,1265.00
2023-01-27T12:02:16.567Z,1263.00
2023-01-27T12:03:16.593Z,1261.00
2023-01-27T12:04:16.685Z,1265.00
2023-01-27T12:05:16.645Z,1214.00
2023-01-27T12:06:16.667Z,1172.00
2023-01-27T12:07:16.645Z,1183.00
2023-01-27T12:08:16.643Z,1195.00
2023-01-27T12:09:16.653Z,1224.00
2023-01-27T12:10:19.948Z,1233.00
2023-01-27T12:11:16.637Z,1232.00
2023-01-27T12:12:16.648Z,1083.00
2023-01-27T12:13:16.700Z,1105.00
2023-01-27T12:14:16.633Z,1234.00
2023-01-27T12:15:16.620Z,1214.00
2023-01-27T12:16:16.633Z,1131.00
2023-01-27T12:17:16.615Z,1214.00
2023-01-27T12:18:16.600Z,1203.00
2023-01-27T12:19:16.597Z,1179.00
2023-01-27T12:20:16.757Z,1105.00
2023-01-27T12:21:16.600Z,1057.00
2023-01-27T12:22:16.581Z,1087.00
2023-01-27T12:23:16.565Z,1113.00
2023-01-27T12:24:16.612Z,1172.00
2023-01-27T12:25:16.551Z,1167.00
2023-01-27T12:26:16.570Z,1163.00
2023-01-27T12:27:16.536Z,1161.00
2023-01-27T12:28:16.530Z,1180.00
2023-01-27T12:29:16.517Z,1215.00
2023-01-27T12:30:16.775Z,1319.00
2023-01-27T12:31:16.575Z,1333.00
2023-01-27T12:32:16.557Z,1325.00
2023-01-27T12:33:16.480Z,1335.00
2023-01-27T12:34:16.473Z,1347.00
2023-01-27T12:35:16.467Z,1349.00
2023-01-27T12:36:16.452Z,1346.00
2023-01-27T12:37:16.444Z,1350.00
2023-01-27T12:38:16.429Z,1333.00
2023-01-27T12:39:16.418Z,1318.00
2023-01-27T12:40:16.490Z,1321.00
2023-01-27T12:41:16.409Z,1353.00
2023-01-27T12:42:16.390Z,1353.00
2023-01-27T12:43:16.383Z,1335.00
2023-01-27T12:44:16.378Z,1336.00
2023-01-27T12:45:16.453Z,1327.00
2023-01-27T12:46:16.378Z,1313.00
2023-01-27T12:47:16.337Z,1225.00
2023-01-27T12:48:16.330Z,1270.00
2023-01-27T12:49:16.317Z,1266.00
2023-01-27T12:50:16.494Z,1271.00
2023-01-27T12:51:16.302Z,1268.00
2023-01-27T12:52:16.289Z,1196.00
2023-01-27T12:53:16.295Z,1181.00
2023-01-27T12:54:16.275Z,1209.00
2023-01-27T12:55:16.259Z,1223.00
2023-01-27T12:56:16.295Z,1235.00
2023-01-27T12:57:16.249Z,1244.00
2023-01-27T12:58:16.259Z,1252.00
2023-01-27T12:59:16.233Z,1258.00
2023-01-27T13:00:16.575Z,1259.00
2023-01-27T13:01:17.176Z,1257.00
2023-01-27T13:02:16.259Z,1257.00
2023-01-27T13:03:16.187Z,1256.00
2023-01-27T13:04:16.179Z,1255.00
2023-01-27T13:05:16.161Z,1257.00
2023-01-27T13:06:16.162Z,1255.00
2023-01-27T13:07:16.135Z,1251.00
2023-01-27T13:08:16.129Z,1249.00
2023-01-27T13:09:16.103Z,1249.00
2023-01-27T13:10:16.385Z,1248.00
2023-01-27T13:11:16.078Z,1240.00
2023-01-27T13:12:16.056Z,1237.00
2023-01-27T13:13:16.139Z,1236.00
2023-01-27T13:14:16.035Z,1234.00
2023-01-27T13:15:16.024Z,1226.00
2023-01-27T13:16:16.044Z,1220.00
2023-01-27T13:17:16.007Z,1221.00
2023-01-27T13:18:16.005Z,1217.00
2023-01-27T13:19:15.978Z,1217.00
2023-01-27T13:20:16.373Z,1218.00
2023-01-27T13:21:15.949Z,1215.00
2023-01-27T13:22:15.936Z,1213.00
2023-01-27T13:23:16.244Z,1212.00
2023-01-27T13:24:16.755Z,1208.00
2023-01-27T13:25:16.029Z,1210.00
2023-01-27T13:26:15.875Z,1210.00
2023-01-27T13:27:15.859Z,1214.00
2023-01-27T13:28:15.857Z,1205.00
2023-01-27T13:29:15.859Z,1203.00
2023-01-27T13:30:16.136Z,1201.00
2023-01-27T13:31:15.860Z,1197.00
2023-01-27T13:32:15.797Z,1192.00
2023-01-27T13:33:15.784Z,1189.00
2023-01-27T13:34:16.740Z,1184.00
2023-01-27T13:35:15.745Z,1182.00
2023-01-27T13:36:15.746Z,1179.00
2023-01-27T13:37:15.785Z,1175.00
2023-01-27T13:38:15.789Z,1172.00
2023-01-27T13:39:15.695Z,1171.00
2023-01-27T13:40:16.020Z,1165.00
2023-01-27T13:41:15.682Z,1159.00
2023-01-27T13:42:15.682Z,1149.00
2023-01-27T13:43:15.687Z,1139.00
2023-01-27T13:44:15.649Z,1134.00
2023-01-27T13:45:15.648Z,1124.00
2023-01-27T13:46:17.242Z,1121.00
2023-01-27T13:47:15.621Z,1112.00
2023-01-27T13:48:15.607Z,1117.00
2023-01-27T13:49:15.594Z,1106.00
2023-01-27T13:50:15.808Z,1109.00
2023-01-27T13:51:15.573Z,1103.00
2023-01-27T13:52:15.570Z,1104.00
2023-01-27T13:53:15.573Z,1108.00
2023-01-27T13:54:15.592Z,1101.00
2023-01-27T13:55:15.582Z,1096.00
2023-01-27T13:56:15.589Z,1094.00
2023-01-27T13:57:15.588Z,1096.00
2023-01-27T13:58:15.588Z,1097.00
2023-01-27T13:59:15.602Z,1099.00
2023-01-27T14:00:15.935Z,1092.00
2023-01-27T14:01:15.604Z,1091.00
2023-01-27T14:02:15.578Z,1089.00
2023-01-27T14:03:15.638Z,1092.00
2023-01-27T14:04:15.572Z,1095.00
2023-01-27T14:05:15.593Z,1097.00
2023-01-27T14:06:15.584Z,1095.00
2023-01-27T14:07:15.592Z,1094.00
2023-01-27T14:08:15.581Z,1093.00
2023-01-27T14:09:15.579Z,1090.00
2023-01-27T14:10:15.771Z,1088.00
2023-01-27T14:11:15.575Z,1088.00
2023-01-27T14:12:15.582Z,1089.00
2023-01-27T14:13:15.644Z,1091.00
2023-01-27T14:14:15.570Z,1089.00
2023-01-27T14:15:15.564Z,1087.00
2023-01-27T14:16:15.586Z,1083.00
2023-01-27T14:17:15.577Z,1082.00
2023-01-27T14:18:15.582Z,1082.00
2023-01-27T14:19:15.685Z,1082.00
2023-01-27T14:20:15.861Z,1078.00
2023-01-27T14:21:15.654Z,1078.00
2023-01-27T14:22:15.611Z,1079.00
2023-01-27T14:23:15.747Z,1079.00
2023-01-27T14:24:15.738Z,1083.00
2023-01-27T14:25:15.644Z,1084.00
2023-01-27T14:26:15.656Z,1082.00
2023-01-27T14:27:15.664Z,1082.00
2023-01-27T14:28:15.679Z,1081.00
2023-01-27T14:29:15.754Z,1080.00
2023-01-27T14:30:16.119Z,1077.00
2023-01-27T14:31:15.863Z,1072.00
2023-01-27T14:32:15.695Z,1072.00
2023-01-27T14:33:15.710Z,1068.00
2023-01-27T14:34:15.694Z,1061.00
2023-01-27T14:35:15.707Z,1058.00
2023-01-27T14:36:15.709Z,1049.00
2023-01-27T14:37:15.706Z,1046.00
2023-01-27T14:38:15.708Z,1051.00
2023-01-27T14:39:15.701Z,1050.00
2023-01-27T14:40:16.044Z,1047.00
2023-01-27T14:41:15.700Z,1042.00
2023-01-27T14:42:15.715Z,1040.00
2023-01-27T14:43:15.721Z,1040.00
2023-01-27T14:44:16.220Z,1036.00
2023-01-27T14:45:15.708Z,1038.00
2023-01-27T14:46:15.770Z,1040.00
2023-01-27T14:47:15.719Z,1038.00
2023-01-27T14:48:15.776Z,1036.00
2023-01-27T14:49:15.728Z,1034.00
2023-01-27T14:50:15.734Z,1032.00
2023-01-27T14:51:15.765Z,1030.00
2023-01-27T14:52:15.730Z,1027.00
2023-01-27T14:53:15.737Z,1023.00
2023-01-27T14:54:15.733Z,1020.00
2023-01-27T14:55:16.027Z,1018.00
2023-01-27T14:56:15.785Z,1017.00
2023-01-27T14:57:15.744Z,1014.00
2023-01-27T14:58:15.727Z,1014.00
2023-01-27T14:59:15.741Z,1010.00
2023-01-27T15:00:15.726Z,1007.00
2023-01-27T15:02:15.761Z,1000.00
2023-01-27T15:03:15.737Z,995.00
2023-01-27T15:04:15.736Z,995.00
2023-01-27T15:05:16.049Z,994.00
2023-01-27T15:06:15.739Z,990.00
2023-01-27T15:07:15.751Z,991.00
2023-01-27T15:08:15.750Z,985.00
2023-01-27T15:09:15.754Z,987.00
2023-01-27T15:10:15.747Z,985.00
2023-01-27T15:11:15.751Z,989.00
2023-01-27T15:12:15.821Z,984.00
2023-01-27T15:13:15.748Z,980.00
2023-01-27T15:14:15.749Z,982.00
2023-01-27T15:20:16.023Z,975.00
2023-01-27T15:21:15.797Z,974.00
2023-01-27T15:22:15.805Z,972.00
2023-01-27T15:23:15.811Z,973.00
2023-01-27T15:24:15.876Z,971.00
2023-01-27T15:25:18.314Z,971.00
2023-01-27T15:26:15.819Z,970.00
2023-01-27T15:27:15.803Z,966.00
2023-01-27T15:28:15.781Z,965.00
2023-01-27T15:29:15.760Z,968.00
2023-01-27T15:30:15.846Z,968.00
2023-01-27T15:31:15.849Z,966.00
2023-01-27T15:32:15.866Z,962.00
2023-01-27T15:33:15.698Z,962.00
2023-01-27T15:34:15.691Z,958.00
2023-01-27T15:35:15.924Z,958.00
2023-01-27T15:36:15.711Z,957.00
2023-01-27T15:37:15.653Z,960.00
2023-01-27T15:38:15.630Z,954.00
2023-01-27T15:39:15.606Z,955.00
2023-01-27T15:40:15.596Z,956.00
2023-01-27T15:41:15.596Z,958.00
2023-01-27T15:42:15.585Z,954.00
2023-01-27T15:43:15.561Z,951.00
2023-01-27T17:39:15.711Z,885.00
2023-01-27T18:00:15.588Z,899.00
2023-01-27T18:14:16.210Z,904.00
2023-01-27T18:28:16.192Z,923.00
2023-01-27T20:58:13.914Z,864.00
2023-01-27T20:59:13.896Z,864.00
2023-01-27T21:00:13.891Z,865.00
2023-01-27T21:02:13.925Z,864.00
2023-01-27T21:04:13.887Z,858.00
2023-01-27T21:05:14.243Z,856.00
2023-01-27T21:06:13.881Z,856.00
2023-01-27T21:07:13.873Z,854.00
2023-01-27T21:09:13.953Z,856.00
2023-01-27T21:10:13.840Z,857.00
2023-01-27T21:11:13.828Z,856.00
2023-01-27T21:12:13.818Z,855.00
2023-01-27T21:13:13.819Z,856.00
2023-01-27T21:14:13.818Z,856.00
2023-01-27T21:15:14.123Z,855.00
2023-01-27T21:17:13.849Z,852.00
2023-01-27T21:18:13.790Z,852.00
2023-01-27T21:19:13.784Z,852.00
2023-01-27T21:20:13.779Z,848.00
2023-01-27T21:21:13.765Z,845.00
2023-01-27T21:22:13.773Z,845.00
2023-01-27T21:23:13.754Z,847.00
2023-01-27T21:28:13.700Z,843.00
